• Join FlightAware (Why Join?)
  • Login
  • US Flag 
07:03PM EDT


 

Airport Tracker/Info


-or-


 

Live Flight TrackerFlight Track Log ✈ VOZ1167 ✈ 16-Sep-2013 ✈ YSSY / SYD - YCFS

Flight Track Log - Related Links

Times and Time Zones

All times are in EDT time to prevent confusion due to time zone crossing. See the VOZ1167 flight status page for this flight to view local times or setup timezone preferences in your user account.

Time Position Orientation Groundspeed Altitude Reporting Facility
EDT Latitude Longitude Course Direction KTS MPH feet Rate Location/Type
01:02AM -33.9346 151.1887 32° Northeast 141 162 1,800  Level Aus ATC (RADAR)
01:02AM -33.9186 151.2006 32° Northeast 159 183 2,500 2,220 Climbing Aus ATC (RADAR)
01:03AM -33.8903 151.2253 36° Northeast 206 237 4,100 1,920 Climbing Aus ATC (RADAR)
01:03AM -33.8543 151.2570 36° Northeast 241 277 5,000 660 Climbing Aus ATC (RADAR)
01:04AM -33.8258 151.2948 48° Northeast 241 277 5,000  Level Aus ATC (RADAR)
01:05AM -33.8113 151.3511 73° East 243 280 5,000 780 Level Aus ATC (RADAR)
01:05AM -33.7955 151.3808 57° Northeast 253 291 5,900 3,120 Climbing Aus ATC (RADAR)
01:06AM -33.7695 151.4194 51° Northeast 258 297 8,200 3,300 Climbing Aus ATC (RADAR)
01:07AM -33.7248 151.4866 51° Northeast 274 315 11,100 3,000 Climbing Aus ATC (RADAR)
01:07AM -33.7123 151.5049 51° Northeast 282 325 11,800 2,880 Climbing Aus ATC (RADAR)
01:07AM -33.6825 151.5495 51° Northeast 296 341 13,500 2,760 Climbing Aus ATC (RADAR)
01:08AM -33.6399 151.6120 51° Northeast 312 359 15,600 2,700 Climbing Aus ATC (RADAR)
01:09AM -33.6070 151.6610 51° Northeast 325 374 17,200 2,700 Climbing Aus ATC (RADAR)
01:09AM -33.5558 151.7069 37° Northeast 325 374 19,100 2,280 Climbing Aus ATC (RADAR)
01:10AM -33.5180 151.7181 14° North 329 379 19,800 1,980 Climbing Aus ATC (RADAR)
01:10AM -33.4604 151.7367 15° North 347 399 21,200 2,520 Climbing Aus ATC (RADAR)
01:12AM -33.3623 151.7679 15° North 343 395 24,000 2,400 Climbing Aus ATC (RADAR)
01:12AM -33.3227 151.7812 16° North 350 403 24,700 1,560 Climbing Aus ATC (RADAR)
01:13AM -33.2646 151.7997 15° North 367 422 25,600 1,800 Climbing Aus ATC (RADAR)
01:13AM -33.1886 151.8245 15° North 375 432 27,100 1,920 Climbing Aus ATC (RADAR)
01:14AM -33.1247 151.8453 15° North 383 441 28,300 1,800 Climbing Aus ATC (RADAR)
01:15AM -33.0380 151.8727 15° North 388 447 29,800 1,620 Climbing Aus ATC (RADAR)
01:15AM -33.0117 151.8812 15° North 390 449 30,100 1,440 Climbing Aus ATC (RADAR)
01:16AM -32.9497 151.9013 15° North 395 455 31,000 1,500 Climbing Aus ATC (RADAR)
01:17AM -32.7995 151.9492 15° North 404 465 33,100 1,500 Climbing Aus ATC (RADAR)
01:17AM -32.7538 151.9641 15° North 405 466 33,700 1,260 Climbing Aus ATC (RADAR)
01:18AM -32.6895 151.9846 15° North 411 473 34,400 1,020 Climbing Aus ATC (RADAR)
01:19AM -32.6060 152.0108 15° North 411 473 35,100 660 Climbing Aus ATC (RADAR)
01:19AM -32.5386 152.0327 15° North 424 488 35,300 480 Climbing Aus ATC (RADAR)
01:20AM -32.4498 152.0607 15° North 437 503 35,800 720 Climbing Aus ATC (RADAR)
01:20AM -32.3995 152.0769 15° North 445 512 36,200 960 Climbing Aus ATC (RADAR)
01:21AM -32.2989 152.1082 15° North 447 514 37,000 540 Climbing Aus ATC (RADAR)
01:22AM -32.2484 152.1239 15° North 451 519 36,900 -180 Descending Aus ATC (RADAR)
01:22AM -32.2052 152.1381 16° North 447 514 36,900  Level Aus ATC (RADAR)
01:23AM -32.1346 152.1598 15° North 449 517 36,900 -540 Level Aus ATC (RADAR)
01:23AM -32.0384 152.1900 15° North 442 509 36,200 -1,560 Descending Aus ATC (RADAR)
01:24AM -31.9697 152.2114 15° North 440 506 34,800 -1,920 Descending Aus ATC (RADAR)
01:25AM -31.8753 152.2407 15° North 420 483 33,500 -1,980 Descending Aus ATC (RADAR)
01:25AM -31.8438 152.2510 15° North 414 476 32,600 -3,180 Descending Aus ATC (RADAR)
01:26AM -31.7778 152.2723 15° North 417 480 30,700 -2,760 Descending Aus ATC (RADAR)
01:27AM -31.6653 152.3066 15° North 428 493 28,400 -2,400 Descending Aus ATC (RADAR)
01:27AM -31.6184 152.3213 15° North 420 483 27,500 -2,340 Descending Aus ATC (RADAR)
01:28AM -31.5533 152.3414 15° North 417 480 26,100 -2,760 Descending Aus ATC (RADAR)
01:28AM -31.4640 152.3688 15° North 421 484 23,700 -2,640 Descending Aus ATC (RADAR)
01:29AM -31.3990 152.3899 15° North 413 475 22,500 -2,220 Descending Aus ATC (RADAR)
01:30AM -31.3118 152.4159 14° North 402 463 20,700 -2,160 Descending Aus ATC (RADAR)
01:30AM -31.2644 152.4304 15° North 387 445 19,800 -2,220 Descending Aus ATC (RADAR)
01:31AM -31.2044 152.4501 16° North 379 436 18,400 -2,100 Descending Aus ATC (RADAR)
01:32AM -31.1108 152.4773 14° North 362 417 16,600 -1,920 Descending Aus ATC (RADAR)
01:32AM -31.0870 152.4853 16° North 359 413 16,100 -1,920 Descending Aus ATC (RADAR)
01:33AM -31.0163 152.5074 15° North 352 405 14,700 -1,920 Descending Aus ATC (RADAR)
01:33AM -30.9740 152.5202 15° North 343 395 13,800 -1,980 Descending Aus ATC (RADAR)
01:34AM -30.9205 152.5366 15° North 337 388 12,700 -1,800 Descending Aus ATC (RADAR)
01:35AM -30.8574 152.5558 15° North 330 380 11,500 -1,740 Descending Aus ATC (RADAR)
01:35AM -30.8043 152.5732 16° North 316 364 10,400 -1,140 Descending Aus ATC (RADAR)
01:36AM -30.7558 152.6241 42° Northeast 302 348 10,000 -960 Descending Aus ATC (RADAR)
01:36AM -30.7317 152.6518 45° Northeast 287 330 9,300 -1,500 Descending Aus ATC (RADAR)
01:37AM -30.6862 152.7041 45° Northeast 290 334 8,200 -1,440 Descending Aus ATC (RADAR)
01:38AM -30.6532 152.7421 45° Northeast 287 330 7,400 -1,440 Descending Aus ATC (RADAR)
01:38AM -30.6183 152.7824 45° Northeast 274 315 6,500 -1,080 Descending Aus ATC (RADAR)
01:39AM -30.5853 152.8393 56° Northeast 264 304 5,900 -720 Descending Aus ATC (RADAR)
01:40AM -30.5701 152.8669 57° Northeast 249 287 5,700 -540 Descending Aus ATC (RADAR)
01:40AM -30.5491 152.8998 54° Northeast 221 254 5,400 -900 Descending Aus ATC (RADAR)
01:41AM -30.5173 152.9291 38° Northeast 196 226 4,500 -1,080 Descending Aus ATC (RADAR)
01:41AM -30.4946 152.9515 40° Northeast 186 214 4,000 -960 Descending Aus ATC (RADAR)
01:42AM -30.4617 152.9845 41° Northeast 170 196 3,100 -900 Descending Aus ATC (RADAR)
01:43AM -30.4475 152.9986 40° Northeast 164 189 2,800 -780 Descending Aus ATC (RADAR)
01:43AM -30.4262 153.0188 39° Northeast 160 184 2,300 -840 Descending Aus ATC (RADAR)
01:46AM -30.3122 153.1172 44° Northeast  Level FlightAware Approximate
01:53AM -30.3206 153.1164 44° Northeast  Level Estimated
01:54AM -30.3206 153.1164 44° Northeast  Level Estimated
01:55AM -30.3206 153.1164 44° Northeast  Level Estimated
01:56AM -30.3206 153.1164 44° Northeast  Level Estimated
01:57AM -30.3206 153.1164 44° Northeast  Level Estimated
01:58AM -30.3206 153.1164 44° Northeast  Level Estimated
01:59AM -30.3206 153.1164 44° Northeast  Level Estimated
02:00AM -30.3206 153.1164 44° Northeast  Level Estimated